createdAt,value
2017-03-29T00:01:04.177Z,0
2017-03-29T00:02:14.432Z,0
2017-03-29T00:03:24.379Z,0
2017-03-29T00:04:34.634Z,0
2017-03-29T00:05:44.890Z,0
2017-03-29T00:06:55.158Z,0
2017-03-29T00:08:05.103Z,0
2017-03-29T00:09:15.043Z,0
2017-03-29T00:10:25.299Z,0
2017-03-29T00:11:35.553Z,0
2017-03-29T00:12:45.803Z,0
2017-03-29T00:13:56.066Z,0
2017-03-29T00:15:06.323Z,0
2017-03-29T00:16:16.615Z,0
2017-03-29T00:17:26.882Z,0
2017-03-29T00:18:37.141Z,0
2017-03-29T00:19:47.395Z,0
2017-03-29T00:20:57.653Z,0
2017-03-29T00:22:07.603Z,0
2017-03-29T00:23:17.542Z,0
2017-03-29T00:24:27.796Z,0
2017-03-29T00:25:37.745Z,0
2017-03-29T00:26:48.002Z,0
2017-03-29T00:27:58.261Z,0
2017-03-29T00:29:08.521Z,0
2017-03-29T00:30:18.773Z,0
2017-03-29T00:31:29.037Z,0
2017-03-29T00:32:39.293Z,0
2017-03-29T00:33:49.547Z,0
2017-03-29T00:34:59.802Z,0
2017-03-29T00:36:10.063Z,0
2017-03-29T00:37:20.319Z,0
2017-03-29T00:38:30.252Z,0
2017-03-29T00:39:40.195Z,0
2017-03-29T00:40:50.448Z,0
2017-03-29T00:42:00.706Z,0
2017-03-29T00:43:10.656Z,0
2017-03-29T00:44:20.912Z,0
2017-03-29T00:45:31.165Z,0
2017-03-29T00:46:41.432Z,0
2017-03-29T00:47:53.714Z,0
2017-03-29T00:49:03.975Z,0
2017-03-29T00:50:14.231Z,0
2017-03-29T00:51:23.860Z,0
2017-03-29T00:52:34.134Z,0
2017-03-29T00:53:44.482Z,0
2017-03-29T00:54:54.739Z,0
2017-03-29T00:56:04.998Z,0
2017-03-29T00:57:15.258Z,0
2017-03-29T00:58:25.507Z,0
2017-03-29T00:59:35.768Z,0
2017-03-29T01:00:45.733Z,0
2017-03-29T01:01:55.989Z,0
2017-03-29T01:03:06.244Z,0
2017-03-29T01:04:16.499Z,0
2017-03-29T01:05:29.023Z,0
2017-03-29T01:06:39.277Z,0
2017-03-29T01:07:49.535Z,0
2017-03-29T01:08:59.795Z,0
2017-03-29T01:10:10.051Z,0
2017-03-29T01:11:20.305Z,0
2017-03-29T01:12:30.561Z,0
2017-03-29T01:13:40.813Z,0
2017-03-29T01:14:51.074Z,0
2017-03-29T01:16:01.336Z,0
2017-03-29T01:17:11.606Z,0
2017-03-29T01:18:21.871Z,0
2017-03-29T01:19:32.129Z,0
2017-03-29T01:20:42.388Z,0
2017-03-29T01:21:52.641Z,0
2017-03-29T01:23:02.909Z,0
2017-03-29T01:24:12.842Z,0
2017-03-29T01:25:23.100Z,0
2017-03-29T01:26:33.048Z,0
2017-03-29T01:27:43.301Z,0
2017-03-29T01:28:53.562Z,0
2017-03-29T01:30:03.497Z,0
2017-03-29T01:31:13.445Z,0
2017-03-29T01:32:23.696Z,0
2017-03-29T01:33:33.956Z,0
2017-03-29T01:34:43.894Z,0
2017-03-29T01:35:54.180Z,0
2017-03-29T01:37:04.432Z,0
2017-03-29T01:38:14.376Z,0
2017-03-29T01:39:24.627Z,0
2017-03-29T01:40:34.881Z,0
2017-03-29T01:41:45.135Z,0
2017-03-29T01:42:55.385Z,0
2017-03-29T01:44:05.637Z,0
2017-03-29T01:45:15.890Z,0
2017-03-29T01:46:26.149Z,0
2017-03-29T01:47:36.090Z,0
2017-03-29T01:48:46.348Z,0
2017-03-29T01:49:56.610Z,0
2017-03-29T01:51:06.872Z,0
2017-03-29T01:52:17.134Z,0
2017-03-29T01:53:27.391Z,0
2017-03-29T01:54:37.649Z,0
2017-03-29T01:55:47.904Z,0
2017-03-29T01:56:58.159Z,0
2017-03-29T01:58:08.100Z,0
2017-03-29T01:59:18.388Z,0
2017-03-29T02:00:28.642Z,0
2017-03-29T02:01:38.897Z,0
2017-03-29T02:02:49.156Z,0
2017-03-29T02:03:59.426Z,0
2017-03-29T02:05:09.688Z,0
2017-03-29T02:06:19.950Z,0
2017-03-29T02:07:30.207Z,0
2017-03-29T02:08:40.173Z,0
2017-03-29T02:09:50.453Z,0
2017-03-29T02:11:00.400Z,0
2017-03-29T02:12:10.024Z,0
2017-03-29T02:13:20.274Z,0
2017-03-29T02:14:30.530Z,0
2017-03-29T02:15:40.785Z,0
2017-03-29T02:16:51.042Z,0
2017-03-29T02:18:01.300Z,0
2017-03-29T02:19:11.561Z,0
2017-03-29T02:20:21.816Z,0
2017-03-29T02:21:32.077Z,0
2017-03-29T02:22:42.330Z,0
2017-03-29T02:23:52.590Z,0
2017-03-29T02:25:02.835Z,0
2017-03-29T02:26:12.806Z,0
2017-03-29T02:27:23.067Z,0
2017-03-29T02:28:33.323Z,0
2017-03-29T02:29:43.577Z,0
2017-03-29T02:30:53.522Z,0
2017-03-29T02:32:03.777Z,0
2017-03-29T02:33:13.718Z,0
2017-03-29T02:34:23.975Z,0
2017-03-29T02:35:34.229Z,0
2017-03-29T02:36:44.180Z,0
2017-03-29T02:37:54.432Z,0
2017-03-29T02:39:04.690Z,0
2017-03-29T02:40:14.634Z,0
2017-03-29T02:41:24.913Z,0
2017-03-29T02:42:35.176Z,0
2017-03-29T02:43:45.432Z,0
2017-03-29T02:44:55.690Z,0
2017-03-29T02:46:05.962Z,0
2017-03-29T02:47:16.229Z,0
2017-03-29T02:48:26.522Z,0
2017-03-29T02:49:36.773Z,0
2017-03-29T02:50:47.031Z,0
2017-03-29T02:51:57.286Z,0
2017-03-29T02:53:07.540Z,0
2017-03-29T02:54:17.800Z,0
2017-03-29T02:55:28.058Z,0
2017-03-29T02:56:38.318Z,0
2017-03-29T02:57:48.574Z,0
2017-03-29T02:58:58.519Z,0
2017-03-29T03:00:08.775Z,0
2017-03-29T03:01:19.033Z,0
2017-03-29T03:02:29.286Z,0
2017-03-29T03:03:39.232Z,0
2017-03-29T03:04:49.492Z,0
2017-03-29T03:05:59.749Z,0
2017-03-29T03:07:10.010Z,0
2017-03-29T03:08:19.953Z,0
2017-03-29T03:09:30.211Z,0
2017-03-29T03:10:40.469Z,0
2017-03-29T03:11:50.722Z,0
2017-03-29T03:13:00.982Z,0
2017-03-29T03:14:11.242Z,0
2017-03-29T03:15:21.499Z,0
2017-03-29T03:16:31.752Z,0
2017-03-29T03:17:41.686Z,0
2017-03-29T03:18:51.935Z,0
2017-03-29T03:20:01.570Z,0
2017-03-29T03:21:11.831Z,0
2017-03-29T03:22:22.083Z,0
2017-03-29T03:23:32.338Z,0
2017-03-29T03:24:42.277Z,0
2017-03-29T03:25:52.533Z,0
2017-03-29T03:27:02.791Z,0
2017-03-29T03:28:13.046Z,0
2017-03-29T03:29:23.305Z,0
2017-03-29T03:30:33.556Z,0
2017-03-29T03:31:43.815Z,0
2017-03-29T03:32:54.065Z,0
2017-03-29T03:34:04.004Z,0
2017-03-29T03:35:14.256Z,0
2017-03-29T03:36:24.511Z,0
2017-03-29T03:37:34.452Z,0
2017-03-29T03:38:44.703Z,0
2017-03-29T03:39:54.955Z,0
2017-03-29T03:41:04.897Z,0
2017-03-29T03:42:15.153Z,0
2017-03-29T03:43:25.410Z,0
2017-03-29T03:44:35.037Z,0
2017-03-29T03:45:45.287Z,0
2017-03-29T03:46:55.539Z,0
2017-03-29T03:48:05.501Z,0
2017-03-29T03:49:15.756Z,0
2017-03-29T03:50:26.012Z,0
2017-03-29T03:51:36.270Z,0
2017-03-29T03:52:45.892Z,0
2017-03-29T03:53:56.143Z,0
2017-03-29T03:55:06.083Z,0
2017-03-29T03:56:16.335Z,0
2017-03-29T03:57:26.584Z,0
2017-03-29T03:58:36.840Z,0
2017-03-29T03:59:47.099Z,0
2017-03-29T04:00:57.364Z,0
2017-03-29T04:02:07.622Z,0
2017-03-29T04:03:17.881Z,0
2017-03-29T04:04:28.132Z,0
2017-03-29T04:05:38.384Z,0
2017-03-29T04:06:48.638Z,0
2017-03-29T04:07:58.893Z,0
2017-03-29T04:09:09.169Z,0
2017-03-29T04:10:19.423Z,0
2017-03-29T04:11:29.694Z,0
2017-03-29T04:12:39.974Z,0
2017-03-29T04:13:50.225Z,0
2017-03-29T04:15:00.484Z,0
2017-03-29T04:16:10.741Z,0
2017-03-29T04:17:21.002Z,0
2017-03-29T04:18:31.257Z,0
2017-03-29T04:19:41.199Z,4
2017-03-29T04:20:51.454Z,4
2017-03-29T04:22:01.710Z,0
2017-03-29T04:23:12.001Z,0
2017-03-29T04:24:22.251Z,4
2017-03-29T04:25:32.196Z,4
2017-03-29T04:26:42.462Z,4
2017-03-29T04:27:52.714Z,4
2017-03-29T04:29:02.964Z,8
2017-03-29T04:30:13.217Z,4
2017-03-29T04:31:23.472Z,4
2017-03-29T04:32:33.727Z,8
2017-03-29T04:33:43.977Z,8
2017-03-29T04:34:53.925Z,8
2017-03-29T04:36:04.184Z,12
2017-03-29T04:37:14.440Z,12
2017-03-29T04:38:24.385Z,16
2017-03-29T04:39:34.329Z,20
2017-03-29T04:40:44.588Z,20
2017-03-29T04:41:54.840Z,24
2017-03-29T04:43:05.099Z,24
2017-03-29T04:44:15.042Z,28
2017-03-29T04:45:25.297Z,32
2017-03-29T04:46:35.551Z,32
2017-03-29T04:47:45.807Z,32
2017-03-29T04:48:56.059Z,36
2017-03-29T04:50:05.997Z,40
2017-03-29T04:51:15.933Z,40
2017-03-29T04:52:26.185Z,44
2017-03-29T04:53:36.440Z,48
2017-03-29T04:54:46.694Z,48
2017-03-29T04:55:56.950Z,52
2017-03-29T04:57:07.201Z,56
2017-03-29T04:58:17.457Z,64
2017-03-29T04:59:27.398Z,68
2017-03-29T05:00:37.655Z,76
2017-03-29T05:01:47.906Z,80
2017-03-29T05:02:58.164Z,88
2017-03-29T05:04:08.425Z,96
2017-03-29T05:05:18.681Z,100
2017-03-29T05:06:28.934Z,112
2017-03-29T05:07:39.188Z,116
2017-03-29T05:08:49.442Z,128
2017-03-29T05:09:59.383Z,136
2017-03-29T05:11:09.643Z,144
2017-03-29T05:12:19.895Z,156
2017-03-29T05:13:29.535Z,168
2017-03-29T05:14:39.787Z,180
2017-03-29T05:15:50.046Z,188
2017-03-29T05:16:59.987Z,192
2017-03-29T05:18:09.926Z,204
2017-03-29T05:19:20.180Z,208
2017-03-29T05:20:30.443Z,220
2017-03-29T05:21:40.705Z,232
2017-03-29T05:22:50.973Z,240
2017-03-29T05:24:01.234Z,252
2017-03-29T05:25:11.493Z,264
2017-03-29T05:26:21.434Z,280
2017-03-29T05:27:31.693Z,288
2017-03-29T05:28:41.947Z,296
2017-03-29T05:29:52.206Z,308
2017-03-29T05:31:02.183Z,316
2017-03-29T05:32:12.445Z,324
2017-03-29T05:33:22.382Z,340
2017-03-29T05:34:32.638Z,360
2017-03-29T05:35:42.896Z,380
2017-03-29T05:36:53.156Z,400
2017-03-29T05:38:03.104Z,424
2017-03-29T05:39:13.043Z,444
2017-03-29T05:40:23.302Z,464
2017-03-29T05:41:33.559Z,480
2017-03-29T05:42:43.816Z,496
2017-03-29T05:43:54.067Z,512
2017-03-29T05:45:04.321Z,528
2017-03-29T05:46:14.576Z,548
2017-03-29T05:47:24.199Z,568
2017-03-29T05:48:34.470Z,592
2017-03-29T05:49:44.720Z,608
2017-03-29T05:50:54.973Z,632
2017-03-29T05:52:05.226Z,660
2017-03-29T05:53:15.479Z,696
2017-03-29T05:54:25.732Z,724
2017-03-29T05:55:35.981Z,748
2017-03-29T05:56:46.271Z,764
2017-03-29T05:57:56.530Z,780
2017-03-29T05:59:06.786Z,804
2017-03-29T06:00:17.044Z,824
2017-03-29T06:01:27.310Z,840
2017-03-29T06:02:37.564Z,852
2017-03-29T06:03:47.820Z,860
2017-03-29T06:04:57.794Z,872
2017-03-29T06:06:08.053Z,880
2017-03-29T06:07:17.997Z,892
2017-03-29T06:08:27.937Z,916
2017-03-29T06:09:38.192Z,952
2017-03-29T06:10:48.132Z,1012
2017-03-29T06:11:58.391Z,1072
2017-03-29T06:13:08.648Z,1112
2017-03-29T06:14:18.909Z,1132
2017-03-29T06:15:29.178Z,1132
2017-03-29T06:16:39.428Z,1120
2017-03-29T06:17:49.684Z,1108
2017-03-29T06:18:59.937Z,1116
2017-03-29T06:20:10.197Z,1120
2017-03-29T06:21:20.461Z,1132
2017-03-29T06:22:30.716Z,1168
2017-03-29T06:23:40.654Z,1236
2017-03-29T06:24:50.908Z,1324
2017-03-29T06:26:01.163Z,1424
2017-03-29T06:27:11.412Z,1488
2017-03-29T06:28:21.671Z,1500
2017-03-29T06:29:31.923Z,1488
2017-03-29T06:30:42.183Z,1480
2017-03-29T06:31:52.445Z,1500
2017-03-29T06:33:02.703Z,1492
2017-03-29T06:34:12.960Z,1480
2017-03-29T06:35:23.219Z,1456
2017-03-29T06:36:33.477Z,1456
2017-03-29T06:37:43.729Z,1436
2017-03-29T06:38:53.669Z,1396
2017-03-29T06:40:03.924Z,1424
2017-03-29T06:41:14.185Z,1480
2017-03-29T06:42:24.436Z,1520
2017-03-29T06:43:34.693Z,1588
2017-03-29T06:44:44.957Z,1676
2017-03-29T06:45:54.899Z,1732
2017-03-29T06:47:05.174Z,1780
2017-03-29T06:48:15.427Z,1844
2017-03-29T06:49:25.371Z,1936
2017-03-29T06:50:35.629Z,1960
2017-03-29T06:51:45.582Z,1900
2017-03-29T06:52:55.842Z,1792
2017-03-29T06:54:06.096Z,1720
2017-03-29T06:55:16.354Z,1704
2017-03-29T06:56:26.777Z,1744
2017-03-29T06:57:37.027Z,1824
2017-03-29T06:58:47.288Z,1884
2017-03-29T06:59:57.548Z,2000
2017-03-29T07:01:07.805Z,2088
2017-03-29T07:02:18.054Z,2104
2017-03-29T07:03:28.304Z,2088
2017-03-29T07:04:38.924Z,2096
2017-03-29T07:05:49.347Z,2080
2017-03-29T07:06:59.619Z,2028
2017-03-29T07:08:09.871Z,2160
2017-03-29T07:09:19.805Z,2308
2017-03-29T07:10:30.069Z,2356
2017-03-29T07:11:40.330Z,2436
2017-03-29T07:12:50.586Z,2536
2017-03-29T07:14:00.531Z,2684
2017-03-29T07:15:10.161Z,2816
2017-03-29T07:16:20.425Z,2936
2017-03-29T07:17:30.372Z,2996
2017-03-29T07:18:40.347Z,3064
2017-03-29T07:19:49.977Z,3136
2017-03-29T07:21:00.229Z,3240
2017-03-29T07:22:10.495Z,3336
2017-03-29T07:23:20.757Z,3364
2017-03-29T07:24:31.014Z,3272
2017-03-29T07:25:41.272Z,3100
2017-03-29T07:26:51.530Z,2948
2017-03-29T07:28:01.796Z,2840
2017-03-29T07:29:12.074Z,2796
2017-03-29T07:30:22.325Z,2788
2017-03-29T07:31:32.581Z,2772
2017-03-29T07:32:42.844Z,2796
2017-03-29T07:33:53.105Z,2828
2017-03-29T07:35:03.040Z,2872
2017-03-29T07:36:12.982Z,2908
2017-03-29T07:37:23.242Z,2936
2017-03-29T07:38:33.505Z,2944
2017-03-29T07:39:43.453Z,2972
2017-03-29T07:40:53.709Z,3024
2017-03-29T07:42:03.654Z,3048
2017-03-29T07:43:13.910Z,3032
2017-03-29T07:44:24.182Z,3024
2017-03-29T07:45:34.131Z,3100
2017-03-29T07:46:44.396Z,3208
2017-03-29T07:47:54.649Z,3252
2017-03-29T07:49:04.908Z,3248
2017-03-29T07:50:15.168Z,3220
2017-03-29T07:51:25.444Z,3216
2017-03-29T07:52:35.698Z,3216
2017-03-29T07:53:45.960Z,3228
2017-03-29T07:54:55.902Z,3292
2017-03-29T07:56:06.158Z,3404
2017-03-29T07:57:16.415Z,3504
2017-03-29T07:58:26.352Z,3504
2017-03-29T07:59:36.292Z,3456
2017-03-29T08:00:46.555Z,3444
2017-03-29T08:01:56.182Z,3488
2017-03-29T08:03:06.467Z,3580
2017-03-29T08:04:16.720Z,3668
2017-03-29T08:05:26.977Z,3796
2017-03-29T08:06:36.918Z,3968
2017-03-29T08:07:47.174Z,4040
2017-03-29T08:08:56.801Z,4012
2017-03-29T08:10:07.063Z,3960
2017-03-29T08:11:17.014Z,3936
2017-03-29T08:12:26.959Z,4004
2017-03-29T08:13:37.211Z,4052
2017-03-29T08:14:47.466Z,4032
2017-03-29T08:15:57.724Z,3984
2017-03-29T08:17:07.983Z,3960
2017-03-29T08:18:17.929Z,3956
2017-03-29T08:19:27.878Z,3924
2017-03-29T08:20:38.127Z,3924
2017-03-29T08:21:47.763Z,3976
2017-03-29T08:22:58.022Z,4036
2017-03-29T08:24:08.284Z,4060
2017-03-29T08:25:18.545Z,4060
2017-03-29T08:26:28.793Z,4084
2017-03-29T08:27:38.733Z,4208
2017-03-29T08:28:48.676Z,4232
2017-03-29T08:29:58.618Z,4128
2017-03-29T08:31:08.871Z,4016
2017-03-29T08:32:19.126Z,3956
2017-03-29T08:33:29.383Z,3908
2017-03-29T08:34:39.658Z,3820
2017-03-29T08:35:49.608Z,3704
2017-03-29T08:36:59.864Z,3620
2017-03-29T08:38:09.505Z,3676
2017-03-29T08:39:19.764Z,3864
2017-03-29T08:40:29.708Z,4128
2017-03-29T08:41:39.339Z,4392
2017-03-29T08:42:49.277Z,4612
2017-03-29T08:43:59.532Z,4696
2017-03-29T08:45:09.786Z,4692
2017-03-29T08:46:20.081Z,4696
2017-03-29T08:47:30.024Z,4708
2017-03-29T08:48:39.967Z,4816
2017-03-29T08:49:50.226Z,4940
2017-03-29T08:51:00.167Z,5064
2017-03-29T08:52:10.424Z,5212
2017-03-29T08:53:20.376Z,5320
2017-03-29T08:54:30.627Z,5380
2017-03-29T08:55:40.566Z,5428
2017-03-29T08:56:50.841Z,5556
2017-03-29T08:58:00.777Z,5752
2017-03-29T08:59:11.037Z,6004
2017-03-29T09:00:21.298Z,6236
2017-03-29T09:01:31.571Z,6292
2017-03-29T09:02:41.829Z,6280
2017-03-29T09:03:52.083Z,6384
2017-03-29T09:05:02.351Z,6452
2017-03-29T09:06:12.608Z,6464
2017-03-29T09:07:22.868Z,6328
2017-03-29T09:08:33.123Z,6152
2017-03-29T09:09:43.383Z,6180
2017-03-29T09:10:53.636Z,6252
2017-03-29T09:12:03.579Z,6452
2017-03-29T09:13:13.519Z,6664
2017-03-29T09:14:23.769Z,6748
2017-03-29T09:15:34.029Z,6840
2017-03-29T09:16:44.299Z,6912
2017-03-29T09:17:54.560Z,6952
2017-03-29T09:19:04.508Z,7108
2017-03-29T09:20:14.450Z,7372
2017-03-29T09:21:24.714Z,7608
2017-03-29T09:22:34.657Z,7688
2017-03-29T09:23:44.915Z,7652
2017-03-29T09:24:55.172Z,7604
2017-03-29T09:26:05.430Z,7588
2017-03-29T09:27:15.685Z,7664
2017-03-29T09:28:25.946Z,7764
2017-03-29T09:29:36.209Z,7720
2017-03-29T09:30:46.467Z,7504
2017-03-29T09:31:56.410Z,7316
2017-03-29T09:33:06.673Z,7312
2017-03-29T09:34:16.934Z,7468
2017-03-29T09:35:26.886Z,7684
2017-03-29T09:36:36.830Z,7916
2017-03-29T09:37:47.093Z,8188
2017-03-29T09:38:56.729Z,8456
2017-03-29T09:40:06.985Z,8620
2017-03-29T09:41:16.931Z,8552
2017-03-29T09:42:27.193Z,8556
2017-03-29T09:43:37.450Z,8824
2017-03-29T09:44:47.717Z,9104
2017-03-29T09:45:57.984Z,9128
2017-03-29T09:47:08.243Z,8860
2017-03-29T09:48:18.509Z,8544
2017-03-29T09:49:28.782Z,8380
2017-03-29T09:50:39.045Z,8476
2017-03-29T09:51:49.304Z,8800
2017-03-29T09:52:59.567Z,9284
2017-03-29T09:54:09.514Z,9820
2017-03-29T09:55:19.456Z,10140
2017-03-29T09:56:29.719Z,10136
2017-03-29T09:57:39.993Z,9900
2017-03-29T09:58:50.257Z,9376
2017-03-29T10:00:00.517Z,8800
2017-03-29T10:01:10.779Z,8516
2017-03-29T10:02:21.043Z,8440
2017-03-29T10:03:31.302Z,8444
2017-03-29T10:04:41.589Z,8560
2017-03-29T10:05:51.857Z,8664
2017-03-29T10:07:01.799Z,8416
2017-03-29T10:08:11.744Z,7944
2017-03-29T10:09:21.686Z,7804
2017-03-29T10:10:31.635Z,8084
2017-03-29T10:11:41.894Z,8288
2017-03-29T10:12:52.149Z,8276
2017-03-29T10:14:02.408Z,8316
2017-03-29T10:15:12.357Z,8480
2017-03-29T10:16:22.615Z,8824
2017-03-29T10:17:32.875Z,9212
2017-03-29T10:18:43.134Z,9572
2017-03-29T10:19:53.398Z,9856
2017-03-29T10:21:03.661Z,10128
2017-03-29T10:22:13.926Z,10560
2017-03-29T10:23:23.873Z,11060
2017-03-29T10:24:34.122Z,11300
2017-03-29T10:25:44.384Z,11216
2017-03-29T10:26:54.656Z,11076
2017-03-29T10:28:04.914Z,11080
2017-03-29T10:29:14.860Z,10976
2017-03-29T10:30:25.120Z,10704
2017-03-29T10:31:35.380Z,10444
2017-03-29T10:32:45.637Z,10248
2017-03-29T10:33:55.901Z,10092
2017-03-29T10:35:05.536Z,10012
2017-03-29T10:36:15.801Z,9988
2017-03-29T10:37:26.069Z,10044
2017-03-29T10:38:36.627Z,10128
2017-03-29T10:39:46.888Z,10160
2017-03-29T10:40:56.833Z,10076
2017-03-29T10:42:07.092Z,9988
2017-03-29T10:43:17.034Z,10124
2017-03-29T10:44:27.695Z,10448
2017-03-29T10:45:37.964Z,10732
2017-03-29T10:46:47.910Z,10772
2017-03-29T10:47:58.178Z,10772
2017-03-29T10:49:08.442Z,10936
2017-03-29T10:50:18.703Z,11312
2017-03-29T10:51:28.649Z,11704
2017-03-29T10:52:38.942Z,12092
2017-03-29T10:53:49.206Z,12368
2017-03-29T10:54:59.155Z,12536
2017-03-29T10:56:09.526Z,12664
2017-03-29T10:57:19.784Z,12836
2017-03-29T10:58:30.045Z,12920
2017-03-29T10:59:40.314Z,12940
2017-03-29T11:00:50.261Z,13080
2017-03-29T11:02:00.521Z,13140
2017-03-29T11:03:10.787Z,13280
2017-03-29T11:04:21.061Z,13500
2017-03-29T11:05:31.320Z,13704
2017-03-29T11:06:41.596Z,13816
2017-03-29T11:07:51.860Z,13856
2017-03-29T11:09:02.118Z,13996
2017-03-29T11:10:12.069Z,14328
2017-03-29T11:11:22.325Z,14592
2017-03-29T11:12:31.964Z,14632
2017-03-29T11:13:42.223Z,14708
2017-03-29T11:14:52.485Z,15156
2017-03-29T11:16:02.445Z,15648
2017-03-29T11:17:12.393Z,15228
2017-03-29T11:18:22.652Z,14868
2017-03-29T11:19:32.916Z,14916
2017-03-29T11:20:43.175Z,15304
2017-03-29T11:21:53.443Z,16016
2017-03-29T11:23:03.078Z,19808
2017-03-29T11:24:13.338Z,16736
2017-03-29T11:25:23.598Z,16448
2017-03-29T11:26:33.549Z,17120
2017-03-29T11:27:43.815Z,18144
2017-03-29T11:28:53.451Z,21760
2017-03-29T11:30:03.720Z,20736
2017-03-29T11:31:13.976Z,19392
2017-03-29T11:32:24.234Z,18528
2017-03-29T11:33:34.494Z,19040
2017-03-29T11:34:44.438Z,21568
2017-03-29T11:35:54.081Z,19232
2017-03-29T11:37:03.100Z,19168
2017-03-29T11:38:13.364Z,19552
2017-03-29T11:39:23.620Z,20096
2017-03-29T11:40:33.890Z,20352
2017-03-29T11:41:44.151Z,20544
2017-03-29T11:42:53.791Z,22336
2017-03-29T11:44:03.732Z,54848
2017-03-29T11:45:13.992Z,24064
2017-03-29T11:46:24.254Z,22464
2017-03-29T11:47:34.206Z,23584
2017-03-29T11:48:44.473Z,22720
2017-03-29T11:49:54.740Z,25024
2017-03-29T11:51:05.007Z,24096
2017-03-29T11:52:15.267Z,27776
2017-03-29T11:53:25.546Z,24480
2017-03-29T11:54:35.823Z,26688
2017-03-29T11:55:46.088Z,26240
2017-03-29T11:56:56.353Z,28832
2017-03-29T11:58:06.632Z,28544
2017-03-29T11:59:16.898Z,27872
2017-03-29T12:00:27.161Z,26592
2017-03-29T12:01:37.455Z,30240
2017-03-29T12:02:47.725Z,26336
2017-03-29T12:03:57.685Z,29536
2017-03-29T12:05:07.632Z,29088
2017-03-29T12:06:17.895Z,40960
2017-03-29T12:07:28.156Z,40768
2017-03-29T12:08:38.427Z,29792
2017-03-29T12:09:48.382Z,32768
2017-03-29T12:10:58.651Z,56064
2017-03-29T12:12:08.667Z,56256
2017-03-29T12:13:18.937Z,60384
2017-03-29T12:14:29.206Z,37216
2017-03-29T12:15:39.475Z,49952
2017-03-29T12:16:49.746Z,52640
2017-03-29T12:18:00.022Z,50560
2017-03-29T12:19:10.304Z,54496
2017-03-29T12:20:20.581Z,49216
2017-03-29T12:21:29.910Z,52928
2017-03-29T12:22:40.181Z,53280
2017-03-29T12:23:50.143Z,53568
2017-03-29T12:25:00.414Z,55040
2017-03-29T12:26:10.691Z,57568
2017-03-29T12:27:20.648Z,55520
2017-03-29T12:28:30.926Z,53568
2017-03-29T12:29:41.205Z,54464
2017-03-29T12:30:51.480Z,55072
2017-03-29T12:32:01.124Z,54112
2017-03-29T12:33:11.403Z,52736
2017-03-29T12:34:21.673Z,50592
2017-03-29T12:35:31.637Z,49568
2017-03-29T12:36:41.909Z,48576
2017-03-29T12:37:52.185Z,47488
2017-03-29T12:39:01.833Z,50944
2017-03-29T12:40:11.807Z,51776
2017-03-29T12:41:22.086Z,46560
2017-03-29T12:42:32.369Z,49760
2017-03-29T12:43:42.656Z,57088
2017-03-29T12:44:52.932Z,53312
2017-03-29T12:46:03.209Z,55744
2017-03-29T12:47:13.486Z,55552
2017-03-29T12:48:23.812Z,53984
2017-03-29T12:49:34.104Z,52928
2017-03-29T12:50:44.384Z,51776
2017-03-29T12:51:54.043Z,52288
2017-03-29T12:53:04.011Z,51680
2017-03-29T12:54:13.979Z,51232
2017-03-29T12:55:24.255Z,44576
2017-03-29T12:56:34.227Z,39456
2017-03-29T12:57:44.501Z,39296
2017-03-29T12:58:54.773Z,40640
2017-03-29T13:00:05.046Z,44448
2017-03-29T13:01:15.014Z,42016
2017-03-29T13:02:25.290Z,44928
2017-03-29T13:03:35.251Z,44704
2017-03-29T13:04:45.529Z,46624
2017-03-29T13:05:55.804Z,47072
2017-03-29T13:07:06.075Z,49760
2017-03-29T13:08:16.039Z,49568
2017-03-29T13:09:26.322Z,49504
2017-03-29T13:10:36.599Z,49536
2017-03-29T13:11:46.884Z,54560
2017-03-29T13:12:57.165Z,53216
2017-03-29T13:14:07.124Z,54912
2017-03-29T13:15:17.088Z,49472
2017-03-29T13:16:27.369Z,44256
2017-03-29T13:17:37.333Z,47072
2017-03-29T13:18:47.620Z,33120
2017-03-29T13:19:57.901Z,45824
2017-03-29T13:21:08.190Z,48768
2017-03-29T13:22:18.468Z,51392
2017-03-29T13:23:28.436Z,48192
2017-03-29T13:24:38.400Z,47680
2017-03-29T13:25:48.677Z,59808
2017-03-29T13:26:58.954Z,20896
2017-03-29T13:28:08.605Z,54560
2017-03-29T13:29:18.571Z,47680
2017-03-29T13:30:28.541Z,38400
2017-03-29T13:31:38.822Z,46496
2017-03-29T13:32:48.795Z,50528
2017-03-29T13:34:02.746Z,48032
2017-03-29T13:35:13.025Z,45920
2017-03-29T13:36:22.679Z,33216
2017-03-29T13:37:32.966Z,15944
2017-03-29T13:38:43.241Z,26976
2017-03-29T13:39:53.211Z,48096
2017-03-29T13:41:03.485Z,27456
2017-03-29T13:42:13.762Z,16800
2017-03-29T13:43:24.040Z,19456
2017-03-29T13:44:34.316Z,38272
2017-03-29T13:45:44.594Z,44736
2017-03-29T13:46:54.873Z,37056
2017-03-29T13:48:05.150Z,39872
2017-03-29T13:49:15.437Z,36736
2017-03-29T13:50:25.721Z,35936
2017-03-29T13:51:35.684Z,38848
2017-03-29T13:52:45.965Z,42976
2017-03-29T13:53:56.240Z,32128
2017-03-29T13:55:06.212Z,27008
2017-03-29T13:56:16.172Z,23904
2017-03-29T13:57:26.139Z,24960
2017-03-29T13:58:36.091Z,23616
2017-03-29T13:59:46.055Z,20736
2017-03-29T14:00:56.331Z,21568
2017-03-29T14:02:06.604Z,30528
2017-03-29T14:03:16.872Z,29664
2017-03-29T14:04:27.142Z,23808
2017-03-29T14:05:37.417Z,19264
2017-03-29T14:06:47.686Z,19488
2017-03-29T14:07:57.334Z,23520
2017-03-29T14:09:07.600Z,19072
2017-03-29T14:10:17.870Z,21344
2017-03-29T14:11:27.828Z,24768
2017-03-29T14:12:38.096Z,30304
2017-03-29T14:13:48.369Z,39040
2017-03-29T14:14:58.325Z,46080
2017-03-29T14:16:08.594Z,53280
2017-03-29T14:17:18.561Z,52192
2017-03-29T14:18:28.833Z,41504
2017-03-29T14:19:39.097Z,36608
2017-03-29T14:20:48.739Z,38272
2017-03-29T14:21:58.695Z,38336
2017-03-29T14:23:08.648Z,38592
2017-03-29T14:24:18.925Z,46368
2017-03-29T14:25:29.202Z,52992
2017-03-29T14:26:39.169Z,53824
2017-03-29T14:27:49.134Z,60320
2017-03-29T14:28:59.406Z,59072
2017-03-29T14:30:09.364Z,58496
2017-03-29T14:31:19.634Z,60480
2017-03-29T14:32:29.593Z,62304
2017-03-29T14:33:39.863Z,59488
2017-03-29T14:34:49.820Z,59648
2017-03-29T14:36:00.094Z,60256
2017-03-29T14:37:10.055Z,60640
2017-03-29T14:38:20.329Z,61472
2017-03-29T14:39:30.601Z,59552
2017-03-29T14:40:40.874Z,60352
2017-03-29T14:41:50.838Z,60320
2017-03-29T14:43:00.800Z,60992
2017-03-29T14:44:11.078Z,60576
2017-03-29T14:45:21.039Z,60608
2017-03-29T14:46:31.001Z,59712
2017-03-29T14:47:41.277Z,59680
2017-03-29T14:48:50.926Z,60032
2017-03-29T14:50:01.205Z,48672
2017-03-29T14:51:11.482Z,39648
2017-03-29T14:52:21.760Z,58944
2017-03-29T14:53:31.728Z,58592
2017-03-29T14:54:41.380Z,58208
2017-03-29T14:55:51.345Z,57088
2017-03-29T14:57:01.626Z,54816
2017-03-29T14:58:11.586Z,53344
2017-03-29T14:59:21.865Z,54112
2017-03-29T15:00:31.830Z,52352
2017-03-29T15:01:42.104Z,54592
2017-03-29T15:02:52.382Z,53952
2017-03-29T15:04:02.346Z,53728
2017-03-29T15:05:12.625Z,53152
2017-03-29T15:06:22.908Z,53312
2017-03-29T15:07:32.559Z,53216
2017-03-29T15:08:42.841Z,50720
2017-03-29T15:09:53.128Z,52384
2017-03-29T15:11:02.785Z,51488
2017-03-29T15:12:13.066Z,53728
2017-03-29T15:13:23.349Z,53632
2017-03-29T15:14:33.624Z,39040
2017-03-29T15:15:43.585Z,49120
2017-03-29T15:16:53.556Z,45216
2017-03-29T15:18:03.527Z,40480
2017-03-29T15:19:13.186Z,36320
2017-03-29T15:20:23.153Z,41568
2017-03-29T15:21:33.118Z,7404
2017-03-29T15:22:43.410Z,33984
2017-03-29T15:23:53.369Z,39424
2017-03-29T15:25:03.650Z,22208
2017-03-29T15:26:13.925Z,43520
2017-03-29T15:27:23.903Z,44512
2017-03-29T15:28:33.866Z,43744
2017-03-29T15:29:43.834Z,39072
2017-03-29T15:30:54.111Z,32896
2017-03-29T15:32:04.396Z,30016
2017-03-29T15:33:14.048Z,33024
2017-03-29T15:34:24.324Z,31904
2017-03-29T15:35:34.601Z,32960
2017-03-29T15:36:44.602Z,31968
2017-03-29T15:37:54.570Z,26720
2017-03-29T15:39:04.536Z,22624
2017-03-29T15:40:14.816Z,20288
2017-03-29T15:41:24.778Z,20800
2017-03-29T15:42:35.055Z,19520
2017-03-29T15:43:45.013Z,17952
2017-03-29T15:44:54.981Z,16768
2017-03-29T15:46:05.262Z,13248
2017-03-29T15:47:15.225Z,12476
2017-03-29T15:48:25.183Z,11112
2017-03-29T15:49:35.452Z,9580
2017-03-29T15:50:45.736Z,9088
2017-03-29T15:51:56.008Z,11604
2017-03-29T15:53:06.279Z,11388
2017-03-29T15:54:16.551Z,9880
2017-03-29T15:55:26.524Z,8328